createdAt,value
2018-12-13T00:00:36.267Z,46.90
2018-12-13T00:03:07.652Z,45.37
2018-12-13T00:05:39.049Z,44.67
2018-12-13T00:08:09.102Z,45.27
2018-12-13T00:10:38.529Z,43.33
2018-12-13T00:13:08.047Z,43.03
2018-12-13T00:15:37.448Z,43.93
2018-12-13T00:18:06.883Z,41.37
2018-12-13T00:20:36.283Z,43.37
2018-12-13T00:23:05.670Z,41.53
2018-12-13T00:25:35.200Z,42.00
2018-12-13T00:28:04.552Z,42.50
2018-12-13T00:30:33.924Z,43.53
2018-12-13T00:33:03.320Z,44.67
2018-12-13T00:35:32.666Z,42.77
2018-12-13T00:38:02.151Z,44.17
2018-12-13T00:40:31.565Z,42.63
2018-12-13T00:43:01.229Z,43.87
2018-12-13T00:45:30.585Z,41.37
2018-12-13T00:48:00.416Z,42.10
2018-12-13T00:50:29.841Z,43.63
2018-12-13T00:52:59.563Z,42.53
2018-12-13T00:55:29.053Z,41.53
2018-12-13T00:57:58.608Z,40.90
2018-12-13T01:00:28.599Z,41.80
2018-12-13T01:02:58.179Z,42.13
2018-12-13T01:05:27.528Z,42.10
2018-12-13T01:07:57.191Z,39.07
2018-12-13T01:10:26.568Z,40.10
2018-12-13T01:12:56.724Z,41.43
2018-12-13T01:15:28.284Z,40.23
2018-12-13T01:17:57.636Z,39.60
2018-12-13T01:20:26.989Z,38.07
2018-12-13T01:22:56.352Z,38.67
2018-12-13T01:25:25.688Z,37.37
2018-12-13T01:27:55.051Z,37.50
2018-12-13T01:30:24.471Z,38.77
2018-12-13T01:32:53.800Z,39.10
2018-12-13T01:35:23.158Z,36.60
2018-12-13T01:37:52.503Z,37.57
2018-12-13T01:40:21.859Z,37.53
2018-12-13T01:42:51.179Z,36.10
2018-12-13T01:45:20.516Z,36.23
2018-12-13T01:47:49.852Z,35.67
2018-12-13T01:50:19.200Z,35.47
2018-12-13T01:52:51.491Z,34.33
2018-12-13T01:55:20.831Z,34.17
2018-12-13T01:57:50.155Z,34.63
2018-12-13T02:00:19.505Z,34.27
2018-12-13T02:02:48.828Z,33.63
2018-12-13T02:05:18.171Z,34.03
2018-12-13T02:07:48.542Z,33.53
2018-12-13T02:10:17.872Z,33.93
2018-12-13T02:12:47.212Z,33.30
2018-12-13T02:15:17.575Z,32.90
2018-12-13T02:17:46.904Z,32.87
2018-12-13T02:20:16.232Z,32.50
2018-12-13T02:22:46.561Z,30.47
2018-12-13T02:25:15.899Z,31.90
2018-12-13T02:27:45.219Z,31.07
2018-12-13T02:30:14.740Z,30.23
2018-12-13T02:32:44.076Z,30.60
2018-12-13T02:35:13.490Z,30.57
2018-12-13T02:37:42.830Z,29.63
2018-12-13T02:40:12.168Z,29.53
2018-12-13T02:42:41.499Z,30.27
2018-12-13T02:45:10.862Z,28.30
2018-12-13T02:47:40.243Z,27.80
2018-12-13T02:50:09.582Z,28.57
2018-12-13T02:52:38.981Z,27.83
2018-12-13T02:55:08.337Z,27.87
2018-12-13T02:57:37.706Z,27.77
2018-12-13T03:00:08.057Z,27.03
2018-12-13T03:02:39.458Z,27.07
2018-12-13T03:05:08.815Z,26.93
2018-12-13T03:07:38.180Z,25.87
2018-12-13T03:10:07.522Z,27.07
2018-12-13T03:12:36.884Z,24.63
2018-12-13T03:15:06.219Z,24.43
2018-12-13T03:17:35.557Z,25.17
2018-12-13T03:20:05.188Z,24.47
2018-12-13T03:22:34.553Z,25.10
2018-12-13T03:25:03.880Z,24.63
2018-12-13T03:27:33.251Z,24.37
2018-12-13T03:30:02.582Z,24.23
2018-12-13T03:32:31.966Z,24.50
2018-12-13T03:35:01.294Z,23.37
2018-12-13T03:37:30.649Z,23.93
2018-12-13T03:39:59.959Z,23.33
2018-12-13T03:42:29.628Z,23.90
2018-12-13T03:44:58.952Z,22.13
2018-12-13T03:47:28.268Z,22.60
2018-12-13T03:49:57.591Z,22.80
2018-12-13T03:52:26.912Z,21.87
2018-12-13T03:54:56.276Z,23.10
2018-12-13T03:57:25.659Z,33.67
2018-12-13T03:59:55.024Z,31.90
2018-12-13T04:02:24.361Z,30.70
2018-12-13T04:04:53.700Z,38.77
2018-12-13T04:07:27.701Z,52.97
2018-12-13T04:09:54.425Z,50.67
2018-12-13T04:12:23.747Z,54.47
2018-12-13T04:14:53.105Z,48.17
2018-12-13T04:17:22.428Z,47.57
2018-12-13T04:19:53.801Z,49.80
2018-12-13T04:22:23.136Z,48.40
2018-12-13T04:24:52.508Z,47.67
2018-12-13T04:27:21.828Z,47.57
2018-12-13T04:29:51.187Z,46.50
2018-12-13T04:32:20.527Z,46.77
2018-12-13T04:34:49.871Z,47.33
2018-12-13T04:37:19.222Z,46.77
2018-12-13T04:39:48.571Z,47.17
2018-12-13T04:42:17.902Z,47.03
2018-12-13T04:44:47.259Z,46.17
2018-12-13T04:47:16.588Z,47.80
2018-12-13T04:49:45.929Z,48.00
2018-12-13T04:52:15.288Z,46.20
2018-12-13T04:54:44.632Z,46.23
2018-12-13T04:57:13.997Z,45.80
2018-12-13T04:59:43.312Z,46.03
2018-12-13T05:02:12.630Z,45.30
2018-12-13T05:04:42.042Z,45.67
2018-12-13T05:07:11.530Z,45.77
2018-12-13T05:09:40.926Z,45.77
2018-12-13T05:12:10.264Z,45.47
2018-12-13T05:14:39.611Z,44.90
2018-12-13T05:17:08.950Z,45.13
2018-12-13T05:19:38.287Z,44.30
2018-12-13T05:22:07.691Z,44.90
2018-12-13T05:24:37.035Z,43.00
2018-12-13T05:27:06.396Z,41.87
2018-12-13T05:29:35.736Z,43.10
2018-12-13T05:32:05.785Z,43.07
2018-12-13T05:34:35.116Z,44.47
2018-12-13T05:37:04.472Z,42.97
2018-12-13T05:39:33.813Z,42.13
2018-12-13T05:42:03.164Z,43.20
2018-12-13T05:44:32.488Z,42.50
2018-12-13T05:47:01.848Z,42.57
2018-12-13T05:49:31.180Z,42.00
2018-12-13T05:52:00.526Z,42.17
2018-12-13T05:54:29.987Z,40.77
2018-12-13T05:56:59.302Z,40.73
2018-12-13T05:59:28.652Z,40.10
2018-12-13T06:01:57.980Z,39.67
2018-12-13T06:04:27.332Z,41.03
2018-12-13T06:06:56.724Z,40.90
2018-12-13T06:09:26.099Z,39.30
2018-12-13T06:11:55.463Z,38.70
2018-12-13T06:14:24.800Z,36.10
2018-12-13T06:16:54.146Z,32.77
2018-12-13T06:19:26.652Z,29.80
2018-12-13T06:21:54.866Z,32.07
2018-12-13T06:24:24.216Z,31.53
2018-12-13T06:26:53.549Z,30.23
2018-12-13T06:29:22.915Z,30.97
2018-12-13T06:31:52.240Z,31.90
2018-12-13T06:34:21.583Z,30.97
2018-12-13T06:36:50.920Z,32.27
2018-12-13T06:39:20.266Z,42.03
2018-12-13T06:41:49.608Z,35.43
2018-12-13T06:44:18.980Z,35.87
2018-12-13T06:46:48.312Z,36.00
2018-12-13T06:49:17.697Z,35.40
2018-12-13T06:51:47.058Z,36.47
2018-12-13T06:54:16.395Z,34.47
2018-12-13T06:56:45.740Z,37.73
2018-12-13T06:59:15.069Z,35.73
2018-12-13T07:01:44.400Z,37.63
2018-12-13T07:04:13.728Z,37.40
2018-12-13T07:06:43.072Z,37.83
2018-12-13T07:09:12.416Z,37.13
2018-12-13T07:11:41.798Z,38.60
2018-12-13T07:14:11.148Z,37.73
2018-12-13T07:16:40.572Z,36.83
2018-12-13T07:19:09.896Z,37.07
2018-12-13T07:21:39.300Z,36.83
2018-12-13T07:24:08.616Z,37.20
2018-12-13T07:26:44.331Z,36.47
2018-12-13T07:29:13.748Z,37.07
2018-12-13T07:31:43.096Z,37.23
2018-12-13T07:34:12.434Z,36.80
2018-12-13T07:36:41.839Z,36.70
2018-12-13T07:39:11.228Z,35.10
2018-12-13T07:41:41.628Z,35.57
2018-12-13T07:44:10.952Z,34.47
2018-12-13T07:46:40.332Z,35.03
2018-12-13T07:49:09.669Z,34.17
2018-12-13T07:51:39.032Z,35.83
2018-12-13T07:54:08.372Z,33.13
2018-12-13T07:56:37.772Z,33.73
2018-12-13T07:59:07.093Z,32.37
2018-12-13T08:01:36.452Z,33.37
2018-12-13T08:04:05.799Z,32.57
2018-12-13T08:06:35.128Z,32.67
2018-12-13T08:09:05.474Z,32.23
2018-12-13T08:11:35.929Z,32.27
2018-12-13T08:14:05.341Z,32.50
2018-12-13T08:16:34.673Z,31.60
2018-12-13T08:19:06.015Z,31.83
2018-12-13T08:21:37.372Z,31.90
2018-12-13T08:24:06.715Z,31.43
2018-12-13T08:26:37.168Z,29.87
2018-12-13T08:29:06.489Z,30.57
2018-12-13T08:31:35.877Z,29.43
2018-12-13T08:34:05.199Z,29.43
2018-12-13T08:36:34.577Z,29.80
2018-12-13T08:39:05.747Z,29.00
2018-12-13T08:41:36.215Z,28.93
2018-12-13T08:44:07.547Z,29.20
2018-12-13T08:46:36.890Z,27.63
2018-12-13T08:49:06.267Z,28.27
2018-12-13T08:51:35.676Z,27.03
2018-12-13T08:54:05.113Z,27.47
2018-12-13T08:56:34.499Z,27.53
2018-12-13T08:59:03.847Z,27.70
2018-12-13T09:01:33.200Z,27.00
2018-12-13T09:04:02.611Z,26.97
2018-12-13T09:06:31.943Z,26.67
2018-12-13T09:09:01.280Z,26.27
2018-12-13T09:11:30.628Z,27.50
2018-12-13T09:14:00.860Z,25.97
2018-12-13T09:16:31.580Z,25.83
2018-12-13T09:19:01.208Z,25.30
2018-12-13T09:21:30.587Z,25.93
2018-12-13T09:23:59.908Z,24.30
2018-12-13T09:26:29.276Z,25.17
2018-12-13T09:28:58.611Z,23.83
2018-12-13T09:31:27.952Z,24.87
2018-12-13T09:33:57.285Z,23.97
2018-12-13T09:36:26.660Z,24.60
2018-12-13T09:38:55.992Z,22.87
2018-12-13T09:41:25.364Z,22.73
2018-12-13T09:43:54.736Z,22.17
2018-12-13T09:46:24.119Z,23.57
2018-12-13T09:48:53.469Z,22.63
2018-12-13T09:51:23.447Z,22.80
2018-12-13T09:53:52.788Z,21.67
2018-12-13T09:56:22.310Z,22.67
2018-12-13T09:58:51.654Z,22.10
2018-12-13T10:01:21.027Z,21.70
2018-12-13T10:03:50.964Z,21.70
2018-12-13T10:06:20.336Z,20.53
2018-12-13T10:08:49.748Z,20.10
2018-12-13T10:11:19.110Z,21.50
2018-12-13T10:13:48.440Z,20.97
2018-12-13T10:16:17.768Z,20.07
2018-12-13T10:18:47.106Z,20.90
2018-12-13T10:21:16.476Z,20.27
2018-12-13T10:23:45.842Z,20.17
2018-12-13T10:26:15.184Z,19.50
2018-12-13T10:28:44.544Z,19.27
2018-12-13T10:31:13.889Z,19.97
2018-12-13T10:33:43.290Z,18.53
2018-12-13T10:36:12.740Z,18.93
2018-12-13T10:38:42.108Z,19.43
2018-12-13T10:41:11.468Z,18.77
2018-12-13T10:43:40.820Z,18.67
2018-12-13T10:46:10.173Z,17.20
2018-12-13T10:48:40.018Z,18.37
2018-12-13T10:51:09.375Z,17.63
2018-12-13T10:53:38.712Z,17.93
2018-12-13T10:56:08.049Z,16.90
2018-12-13T10:58:37.467Z,17.03
2018-12-13T11:01:12.136Z,17.70
2018-12-13T11:03:41.479Z,17.10
2018-12-13T11:06:10.833Z,17.23
2018-12-13T11:08:40.218Z,17.73
2018-12-13T11:11:09.571Z,16.23
2018-12-13T11:13:39.006Z,16.27
2018-12-13T11:16:08.425Z,16.13
2018-12-13T11:18:37.832Z,15.87
2018-12-13T11:21:07.159Z,15.67
2018-12-13T11:23:36.485Z,15.40
2018-12-13T11:26:05.823Z,15.23
2018-12-13T11:29:15.637Z,16.30
2018-12-13T11:31:45.947Z,14.87
2018-12-13T11:34:15.394Z,15.03
2018-12-13T11:36:44.801Z,15.77
2018-12-13T11:39:14.153Z,15.57
2018-12-13T11:41:43.500Z,15.00
2018-12-13T11:44:12.949Z,13.37
2018-12-13T11:46:42.305Z,14.60
2018-12-13T11:49:12.305Z,14.37
2018-12-13T11:51:41.863Z,14.23
2018-12-13T11:54:47.581Z,13.30
2018-12-13T11:57:17.064Z,14.00
2018-12-13T11:59:46.446Z,12.43
2018-12-13T12:02:15.848Z,12.47
2018-12-13T12:04:45.176Z,14.37
2018-12-13T12:07:14.535Z,13.23
2018-12-13T12:09:43.911Z,12.57
2018-12-13T12:12:13.240Z,13.17
2018-12-13T12:14:42.620Z,13.93
2018-12-13T12:17:11.988Z,12.90
2018-12-13T12:19:41.383Z,12.67
2018-12-13T12:22:10.812Z,12.30
2018-12-13T12:24:40.572Z,12.77
2018-12-13T12:27:09.923Z,11.97
2018-12-13T12:29:39.951Z,11.70
2018-12-13T12:32:09.307Z,11.83
2018-12-13T12:34:38.851Z,11.43
2018-12-13T12:37:08.298Z,11.23
2018-12-13T12:39:37.690Z,11.63
2018-12-13T12:42:07.100Z,11.27
2018-12-13T12:44:38.519Z,11.17
2018-12-13T12:47:07.865Z,10.80
2018-12-13T12:49:37.239Z,10.87
2018-12-13T12:52:06.838Z,10.50
2018-12-13T12:54:36.201Z,11.00
2018-12-13T12:57:05.561Z,10.43
2018-12-13T12:59:34.940Z,9.97
2018-12-13T13:02:04.303Z,10.33
2018-12-13T13:04:33.663Z,9.70
2018-12-13T13:07:03.028Z,9.80
2018-12-13T13:09:32.344Z,9.87
2018-12-13T13:12:01.699Z,9.63
2018-12-13T13:14:31.016Z,9.73
2018-12-13T13:17:00.376Z,9.30
2018-12-13T13:19:29.693Z,8.97
2018-12-13T13:21:59.039Z,9.40
2018-12-13T13:24:28.370Z,9.13
2018-12-13T13:26:57.782Z,8.87
2018-12-13T13:29:27.107Z,9.97
2018-12-13T13:31:56.444Z,9.40
2018-12-13T13:34:25.759Z,9.30
2018-12-13T13:36:55.115Z,8.77
2018-12-13T13:39:24.429Z,8.63
2018-12-13T13:41:53.788Z,8.97
2018-12-13T13:44:25.167Z,8.23
2018-12-13T13:46:54.556Z,8.87
2018-12-13T13:49:23.868Z,8.57
2018-12-13T13:51:53.300Z,8.47
2018-12-13T13:54:22.617Z,8.70
2018-12-13T13:56:52.040Z,8.60
2018-12-13T13:59:21.373Z,8.80
2018-12-13T14:01:50.710Z,8.80
2018-12-13T14:04:20.027Z,8.03
2018-12-13T14:06:50.019Z,8.40
2018-12-13T14:09:19.369Z,7.80
2018-12-13T14:11:48.697Z,8.37
2018-12-13T14:14:18.059Z,7.93
2018-12-13T14:16:47.380Z,8.23
2018-12-13T14:19:16.704Z,7.90
2018-12-13T14:21:46.027Z,7.63
2018-12-13T14:24:15.359Z,7.63
2018-12-13T14:26:44.723Z,7.27
2018-12-13T14:29:14.077Z,7.90
2018-12-13T14:31:43.574Z,8.00
2018-12-13T14:34:12.932Z,7.70
2018-12-13T14:36:42.254Z,7.80
2018-12-13T14:39:11.608Z,7.17
2018-12-13T14:41:42.968Z,7.73
2018-12-13T14:44:15.172Z,7.40
2018-12-13T14:46:46.702Z,7.80
2018-12-13T14:49:16.054Z,6.80
2018-12-13T14:51:45.392Z,8.07
2018-12-13T14:54:14.723Z,7.50
2018-12-13T14:56:44.776Z,6.93
2018-12-13T14:59:14.101Z,7.37
2018-12-13T15:01:43.504Z,7.47
2018-12-13T15:04:12.831Z,6.90
2018-12-13T15:06:42.172Z,7.40
2018-12-13T15:09:11.491Z,7.63
2018-12-13T15:11:43.922Z,6.83
2018-12-13T15:14:13.353Z,7.53
2018-12-13T15:16:43.061Z,7.60
2018-12-13T15:19:12.379Z,7.30
2018-12-13T15:21:41.729Z,6.87
2018-12-13T15:24:11.055Z,6.47
2018-12-13T15:26:40.383Z,7.17
2018-12-13T15:29:09.731Z,6.97
2018-12-13T15:31:39.064Z,7.40
2018-12-13T15:34:08.546Z,7.13
2018-12-13T15:36:37.879Z,7.37
2018-12-13T15:39:07.754Z,6.73
2018-12-13T15:41:38.209Z,6.37
2018-12-13T15:44:07.548Z,6.47
2018-12-13T15:46:36.868Z,6.87
2018-12-13T15:49:06.228Z,6.83
2018-12-13T15:51:35.561Z,6.90
2018-12-13T15:54:04.954Z,7.10
2018-12-13T15:56:34.291Z,6.50
2018-12-13T15:59:03.648Z,7.30
2018-12-13T16:01:32.970Z,6.33
2018-12-13T16:04:02.689Z,5.87
2018-12-13T16:06:32.030Z,6.10
2018-12-13T16:09:01.369Z,6.70
2018-12-13T16:11:32.715Z,6.27
2018-12-13T16:14:02.083Z,6.47
2018-12-13T16:16:31.419Z,6.80
2018-12-13T16:19:00.756Z,6.03
2018-12-13T16:21:30.120Z,6.20
2018-12-13T16:23:59.475Z,6.80
2018-12-13T16:26:28.844Z,6.23
2018-12-13T16:28:58.238Z,6.13
2018-12-13T16:31:27.571Z,5.80
2018-12-13T16:33:56.880Z,6.07
2018-12-13T16:36:26.220Z,6.20
2018-12-13T16:38:55.536Z,5.87
2018-12-13T16:41:25.018Z,6.60
2018-12-13T16:43:54.492Z,6.83
2018-12-13T16:46:23.872Z,6.67
2018-12-13T16:48:53.197Z,7.00
2018-12-13T16:51:23.204Z,6.53
2018-12-13T16:53:53.260Z,6.20
2018-12-13T16:56:23.304Z,6.00
2018-12-13T16:58:53.056Z,6.00
2018-12-13T17:01:22.924Z,6.10
2018-12-13T17:03:52.324Z,6.40
2018-12-13T17:06:21.696Z,6.23
2018-12-13T17:08:51.038Z,6.07
2018-12-13T17:11:20.408Z,6.40
2018-12-13T17:13:49.767Z,11.97
2018-12-13T17:16:19.092Z,25.57
2018-12-13T17:18:48.465Z,40.80
2018-12-13T17:21:17.836Z,43.37
2018-12-13T17:23:47.220Z,32.97
2018-12-13T17:26:16.605Z,28.50
2018-12-13T17:28:46.011Z,23.77
2018-12-13T17:31:15.484Z,23.37
2018-12-13T17:33:45.189Z,25.23
2018-12-13T17:36:15.598Z,22.23
2018-12-13T17:38:45.020Z,22.30
2018-12-13T17:41:14.422Z,21.60
2018-12-13T17:43:44.769Z,21.43
2018-12-13T17:46:15.208Z,21.03
2018-12-13T17:48:44.769Z,20.37
2018-12-13T17:51:14.841Z,19.80
2018-12-13T17:53:44.616Z,19.63
2018-12-13T17:56:17.707Z,18.97
2018-12-13T17:58:47.175Z,19.10
2018-12-13T18:01:16.776Z,19.13
2018-12-13T18:03:47.957Z,18.37
2018-12-13T18:06:17.347Z,22.40
2018-12-13T18:08:47.481Z,27.10
2018-12-13T18:11:16.874Z,28.37
2018-12-13T18:13:47.350Z,28.43
2018-12-13T18:16:16.813Z,28.33
2018-12-13T18:18:47.141Z,27.10
2018-12-13T18:21:20.424Z,27.07
2018-12-13T18:23:49.880Z,26.27
2018-12-13T18:26:19.276Z,25.63
2018-12-13T18:28:50.190Z,26.93
2018-12-13T18:31:19.854Z,27.70
2018-12-13T18:33:49.378Z,28.13
2018-12-13T18:36:19.785Z,34.20
2018-12-13T18:38:49.762Z,39.23
2018-12-13T18:41:19.175Z,35.73
2018-12-13T18:43:48.653Z,38.30
2018-12-13T18:46:18.085Z,40.67
2018-12-13T18:48:47.462Z,42.77
2018-12-13T18:51:16.885Z,43.17
2018-12-13T18:53:46.968Z,48.97
2018-12-13T18:56:16.491Z,59.33
2018-12-13T18:58:45.856Z,54.17
2018-12-13T19:01:15.376Z,52.37
2018-12-13T19:03:44.829Z,54.17
2018-12-13T19:06:14.302Z,59.27
2018-12-13T19:08:44.504Z,63.73
2018-12-13T19:11:15.173Z,67.33
2018-12-13T19:13:44.536Z,73.90
2018-12-13T19:16:13.935Z,75.13
2018-12-13T19:18:44.162Z,64.70
2018-12-13T19:21:15.844Z,54.77
2018-12-13T19:23:45.252Z,59.63
2018-12-13T19:26:14.660Z,58.47
2018-12-13T19:28:44.207Z,60.60
2018-12-13T19:31:15.503Z,57.77
2018-12-13T19:33:44.879Z,61.13
2018-12-13T19:36:15.343Z,58.87
2018-12-13T19:38:44.739Z,60.80
2018-12-13T19:41:14.138Z,62.40
2018-12-13T19:43:43.553Z,65.10
2018-12-13T19:46:13.010Z,62.40
2018-12-13T19:48:42.407Z,65.33
2018-12-13T19:51:11.832Z,62.70
2018-12-13T19:53:41.300Z,69.77
2018-12-13T19:56:12.292Z,66.33
2018-12-13T19:58:41.923Z,67.83
2018-12-13T20:01:12.091Z,71.53
2018-12-13T20:03:42.096Z,73.13
2018-12-13T20:06:12.571Z,72.20
2018-12-13T20:08:42.831Z,71.00
2018-12-13T20:11:12.560Z,73.63
2018-12-13T20:13:42.406Z,73.13
2018-12-13T20:16:12.283Z,70.23
2018-12-13T20:18:43.046Z,73.93
2018-12-13T20:21:12.773Z,70.03
2018-12-13T20:23:43.072Z,74.63
2018-12-13T20:26:13.058Z,75.90
2018-12-13T20:28:43.601Z,73.53
2018-12-13T20:31:14.361Z,74.83
2018-12-13T20:33:44.610Z,74.27
2018-12-13T20:36:14.472Z,77.70
2018-12-13T20:38:45.068Z,79.27
2018-12-13T20:41:14.714Z,77.57
2018-12-13T20:43:45.167Z,79.20
2018-12-13T20:46:15.108Z,82.77
2018-12-13T20:48:44.540Z,81.70
2018-12-13T20:51:15.780Z,79.20
2018-12-13T20:53:45.302Z,77.83
2018-12-13T20:56:15.414Z,86.30
2018-12-13T20:58:44.807Z,85.30
2018-12-13T21:01:15.822Z,92.07
2018-12-13T21:03:51.344Z,90.63
2018-12-13T21:06:22.037Z,91.13
2018-12-13T21:08:51.496Z,91.83
2018-12-13T21:11:22.496Z,88.63
2018-12-13T21:13:51.916Z,93.50
2018-12-13T21:16:21.441Z,89.90
2018-12-13T21:18:50.875Z,89.97
2018-12-13T21:21:20.280Z,89.00
2018-12-13T21:23:51.304Z,88.50
2018-12-13T21:26:20.731Z,85.20
2018-12-13T21:28:50.116Z,88.10
2018-12-13T21:31:19.532Z,88.17
2018-12-13T21:33:48.941Z,84.50
2018-12-13T21:36:18.312Z,88.27
2018-12-13T21:38:47.709Z,86.20
2018-12-13T21:41:17.160Z,86.23
2018-12-13T21:43:46.592Z,89.27
2018-12-13T21:46:15.984Z,87.73
2018-12-13T21:48:46.862Z,87.93
2018-12-13T21:51:16.482Z,86.13
2018-12-13T21:53:45.933Z,87.80
2018-12-13T21:56:15.388Z,86.13
2018-12-13T21:58:45.473Z,88.17
2018-12-13T22:01:14.880Z,87.70
2018-12-13T22:03:44.814Z,92.73
2018-12-13T22:06:15.821Z,92.33
2018-12-13T22:08:54.979Z,95.23
2018-12-13T22:11:27.151Z,96.60
2018-12-13T22:13:56.568Z,98.60
2018-12-13T22:16:25.895Z,96.10
2018-12-13T22:18:55.282Z,90.80
2018-12-13T22:21:24.628Z,97.53
2018-12-13T22:23:53.996Z,105.13
2018-12-13T22:26:23.344Z,104.87
2018-12-13T22:28:52.832Z,101.07
2018-12-13T22:31:22.160Z,103.60
2018-12-13T22:33:51.541Z,100.97
2018-12-13T22:36:20.931Z,98.67
2018-12-13T22:38:50.322Z,99.07
2018-12-13T22:41:26.108Z,96.47
2018-12-13T22:43:51.519Z,93.43
2018-12-13T22:46:20.948Z,93.97
2018-12-13T22:48:53.917Z,94.23
2018-12-13T22:51:23.631Z,90.33
2018-12-13T22:53:53.323Z,90.27
2018-12-13T22:56:24.033Z,88.90
2018-12-13T22:58:53.564Z,87.03
2018-12-13T23:01:26.160Z,85.20
2018-12-13T23:03:56.073Z,87.00
2018-12-13T23:06:27.619Z,83.53
2018-12-13T23:08:56.980Z,81.97
2018-12-13T23:11:32.571Z,85.00
2018-12-13T23:13:57.816Z,81.57
2018-12-13T23:16:27.187Z,80.87
2018-12-13T23:18:56.556Z,77.70
2018-12-13T23:21:30.692Z,80.47
2018-12-13T23:24:00.008Z,77.13
2018-12-13T23:26:29.375Z,79.17
2018-12-13T23:28:58.701Z,75.37
2018-12-13T23:31:28.098Z,76.90
2018-12-13T23:33:57.573Z,74.97
2018-12-13T23:36:26.986Z,75.47
2018-12-13T23:38:56.753Z,74.30
2018-12-13T23:41:26.477Z,74.60
2018-12-13T23:43:55.998Z,72.00
2018-12-13T23:46:25.549Z,70.80
2018-12-13T23:48:55.063Z,71.67
2018-12-13T23:51:24.461Z,70.40
2018-12-13T23:53:53.867Z,68.97
2018-12-13T23:56:23.466Z,72.53
2018-12-13T23:58:53.522Z,67.70
